Terminal Aerodrome Forecast
Issued by NWS Cleveland, OH

Home | Current Version | Previous Version | Graphics & Text | Print | Product List | Glossary On
Versions: 1 2 3 4 5 6 7 8 9 10 11 12 13 14 15 16 17 18 19 20 21 22 23 24 25 26 27 28 29
000
FTUS41 KCLE 262328
TAFCLE
TAF
KCLE 262328Z 2700/2806 19007KT P6SM VCSH SCT060 BKN200
     FM270900 20005KT 5SM BR SCT150
     FM271400 21007KT P6SM SCT045 BKN250
     FM272100 32075KT P6SM BKN050
     FM280200 18004KT P6SM BKN080=

USA.gov is the U.S. government's official web portal to all federal, state and local government web resources and services.